• Join FlightAware (Why Join?)
  • Login
  • US Flag 
12:59AM EDT


 

Airport Tracker/Info


-or-


 

Live Flight TrackerFlight Track Log ✈ WEW307 ✈ 17-May-2013 ✈ CYXE - CYQR

Flight Track Log - Related Links

Times and Time Zones

All times are in EDT time to prevent confusion due to time zone crossing. See the WEW307 flight status page for this flight to view local times or setup timezone preferences in your user account.

Time Position Orientation Groundspeed Altitude Reporting Facility
EDT Latitude Longitude Course Direction KTS MPH feet Rate Location/Type
05:58PM 52.1500 -106.7000 142° Southeast 130 150 1,900  Level Winnipeg Center
05:59PM 52.1500 -106.6500 90° East 150 173 3,300 1,320 Climbing Winnipeg Center
06:00PM 52.1333 -106.5833 112° Southeast 150 173 4,600 1,260 Climbing Winnipeg Center
06:01PM 52.1167 -106.5000 108° East 160 184 5,900 1,200 Climbing Winnipeg Center
06:02PM 52.1167 -106.4500 90° East 160 184 7,100 1,140 Climbing Winnipeg Center
06:03PM 52.1000 -106.3500 105° East 170 196 8,200 1,020 Climbing Winnipeg Center
06:04PM 51.8362 -106.2928 142° Southeast  Level Estimated
06:04PM 52.0667 -106.3000 137° Southeast 180 207 9,200  Level Winnipeg Center
06:05PM 52.0500 -106.2167 108° East 190 219 10,300 900 Climbing Winnipeg Center
06:06PM 52.0167 -106.1500 129° Southeast 190 219 11,100 720 Climbing Winnipeg Center
06:07PM 51.9500 -106.1000 155° Southeast 200 230 11,800 780 Climbing Winnipeg Center
06:08PM 51.9167 -106.0667 148° Southeast 200 230 12,700 780 Climbing Winnipeg Center
06:09PM 51.8500 -106.0000 148° Southeast 200 230 13,400 660 Climbing Winnipeg Center
06:10PM 51.8333 -105.9500 118° Southeast 200 230 14,100 480 Climbing Winnipeg Center
06:12PM 51.7667 -105.7667 120° Southeast 210 242 15,000 300 Climbing Winnipeg Center
06:13PM 51.7500 -105.6833 108° East 230 265 15,000 -60 Level Winnipeg Center
06:14PM 51.6833 -105.6167 148° Southeast 240 276 14,900  Descending Winnipeg Center
06:15PM 51.6167 -105.5833 163° South 240 276 15,000  Climbing Winnipeg Center
06:16PM 51.5667 -105.5500 157° South 230 265 15,000  Level Winnipeg Center
06:17PM 51.5167 -105.5000 148° Southeast 240 276 15,000  Level Winnipeg Center
06:18PM 51.4500 -105.4667 163° South 240 276 15,000  Level Winnipeg Center
06:19PM 51.3833 -105.4333 163° South 240 276 15,000  Level Winnipeg Center
06:20PM 51.3333 -105.3833 148° Southeast 240 276 15,000  Level Winnipeg Center
06:21PM 51.2500 -105.3500 166° South 240 276 15,000  Level Winnipeg Center
06:22PM 51.2000 -105.3167 157° South 240 276 15,000  Level Winnipeg Center
06:23PM 51.1333 -105.2500 148° Southeast 240 276 15,000  Level Winnipeg Center
06:24PM 51.0833 -105.2167 157° South 240 276 15,000 -600 Level Winnipeg Center
06:25PM 51.0167 -105.1667 155° Southeast 240 276 13,900 -1,320 Descending Winnipeg Center
06:26PM 50.9500 -105.1333 163° South 250 288 12,400 -1,500 Descending Winnipeg Center
06:27PM 50.8833 -105.1000 162° South 250 288 10,900 -1,500 Descending Winnipeg Center
06:28PM 50.8167 -105.0333 148° Southeast 260 299 9,500 -1,380 Descending Winnipeg Center
06:29PM 50.7667 -105.0000 157° South 240 276 8,200 -1,260 Descending Winnipeg Center
06:30PM 50.7000 -104.9500 155° Southeast 220 253 7,000 -1,200 Descending Winnipeg Center
06:31PM 50.6667 -104.9167 148° Southeast 200 230 5,900 -1,140 Descending Winnipeg Center
06:32PM 50.6167 -104.8833 157° South 200 230 4,800 -960 Descending Winnipeg Center
06:33PM 50.5667 -104.8500 157° South 180 207 4,000 -660 Descending Winnipeg Center
06:34PM 50.5167 -104.8167 157° South 180 207 3,500 -600 Descending Winnipeg Center
06:35PM 50.4833 -104.7833 148° Southeast 160 184 2,900 -540 Descending Winnipeg Center
06:36PM 50.4500 -104.7333 136° Southeast 140 161 2,500 -480 Descending Winnipeg Center
06:37PM 50.4167 -104.7000 147° Southeast 130 150 2,000 -300 Descending Winnipeg Center
06:38PM 50.4000 -104.6667 128° Southeast 90 104 1,900 -120 Descending Winnipeg Center